createdAt,value
2018-05-07T00:01:33.218Z,45.01
2018-05-07T00:04:01.482Z,45.39
2018-05-07T00:06:28.931Z,45.32
2018-05-07T00:08:56.352Z,45.72
2018-05-07T00:11:23.789Z,46.15
2018-05-07T00:13:51.306Z,46.18
2018-05-07T00:16:18.699Z,45.88
2018-05-07T00:18:46.137Z,46.07
2018-05-07T00:21:13.588Z,46.08
2018-05-07T00:23:41.026Z,46.19
2018-05-07T00:31:54.418Z,46.18
2018-05-07T00:34:21.902Z,46.39
2018-05-07T00:36:49.333Z,46.39
2018-05-07T00:39:16.825Z,46.56
2018-05-07T00:41:44.249Z,46.56
2018-05-07T00:44:11.718Z,46.64
2018-05-07T00:46:39.161Z,46.82
2018-05-07T00:49:06.645Z,46.78
2018-05-07T00:51:34.088Z,46.86
2018-05-07T00:54:01.578Z,47.13
2018-05-07T00:56:29.009Z,47.28
2018-05-07T00:58:56.479Z,47.29
2018-05-07T01:01:23.917Z,47.17
2018-05-07T01:03:51.360Z,47.18
2018-05-07T01:09:12.195Z,47.18
2018-05-07T01:11:39.646Z,47.38
2018-05-07T01:14:07.104Z,47.40
2018-05-07T01:16:34.556Z,47.52
2018-05-07T01:19:02.018Z,47.80
2018-05-07T01:21:29.477Z,48.05
2018-05-07T01:23:56.950Z,48.10
2018-05-07T01:26:24.448Z,48.26
2018-05-07T01:28:52.034Z,48.23
2018-05-07T01:31:19.507Z,48.42
2018-05-07T01:33:46.983Z,48.38
2018-05-07T01:36:14.427Z,48.63
2018-05-07T01:38:41.905Z,48.39
2018-05-07T01:41:09.364Z,48.55
2018-05-07T01:43:36.802Z,48.66
2018-05-07T01:46:04.290Z,48.55
2018-05-07T01:48:31.777Z,48.74
2018-05-07T01:50:59.222Z,48.70
2018-05-07T01:53:26.680Z,49.13
2018-05-07T01:55:54.118Z,49.03
2018-05-07T01:58:21.600Z,49.49
2018-05-07T02:00:49.060Z,49.94
2018-05-07T02:03:16.486Z,49.70
2018-05-07T02:05:43.913Z,49.86
2018-05-07T02:08:11.368Z,49.97
2018-05-07T02:10:38.781Z,49.79
2018-05-07T02:13:06.243Z,49.76
2018-05-07T02:15:34.329Z,49.90
2018-05-07T02:18:01.804Z,50.27
2018-05-07T02:20:29.261Z,50.37
2018-05-07T02:22:56.735Z,50.46
2018-05-07T02:25:24.181Z,50.32
2018-05-07T02:27:51.718Z,50.37
2018-05-07T02:30:19.200Z,50.49
2018-05-07T02:32:46.637Z,50.52
2018-05-07T02:35:14.120Z,50.36
2018-05-07T02:37:41.568Z,50.38
2018-05-07T02:40:09.031Z,50.64
2018-05-07T02:42:36.464Z,50.36
2018-05-07T02:45:03.889Z,50.62
2018-05-07T02:47:31.410Z,50.46
2018-05-07T02:49:58.847Z,50.59
2018-05-07T02:52:26.320Z,50.84
2018-05-07T02:54:53.752Z,51.19
2018-05-07T02:57:21.209Z,51.45
2018-05-07T02:59:48.693Z,51.52
2018-05-07T03:02:16.150Z,51.52
2018-05-07T03:04:43.598Z,51.91
2018-05-07T03:07:11.038Z,52.07
2018-05-07T03:09:38.471Z,52.06
2018-05-07T03:12:06.007Z,51.84
2018-05-07T03:14:33.356Z,51.83
2018-05-07T03:17:00.804Z,52.33
2018-05-07T03:19:28.282Z,52.32
2018-05-07T03:21:55.911Z,52.64
2018-05-07T03:24:23.358Z,52.92
2018-05-07T03:26:51.000Z,53.31
2018-05-07T03:29:19.389Z,53.17
2018-05-07T03:31:46.829Z,53.10
2018-05-07T03:34:14.279Z,53.37
2018-05-07T03:36:41.717Z,53.50
2018-05-07T03:39:09.182Z,53.59
2018-05-07T03:41:36.612Z,53.71
2018-05-07T03:44:04.738Z,54.19
2018-05-07T03:46:32.187Z,54.61
2018-05-07T03:48:59.657Z,54.28
2018-05-07T03:51:27.111Z,54.48
2018-05-07T03:53:54.646Z,54.61
2018-05-07T03:56:41.437Z,54.86
2018-05-07T03:59:08.887Z,55.21
2018-05-07T04:01:36.328Z,55.09
2018-05-07T04:04:03.759Z,55.61
2018-05-07T04:06:31.228Z,55.54
2018-05-07T04:08:58.747Z,55.80
2018-05-07T04:11:26.205Z,56.14
2018-05-07T04:13:53.641Z,55.67
2018-05-07T04:16:32.752Z,55.38
2018-05-07T04:19:11.961Z,55.40
2018-05-07T04:21:39.375Z,54.83
2018-05-07T04:24:06.822Z,54.68
2018-05-07T04:26:34.300Z,54.52
2018-05-07T04:29:01.734Z,54.45
2018-05-07T04:31:29.170Z,54.65
2018-05-07T04:33:56.605Z,54.54
2018-05-07T04:36:24.082Z,54.70
2018-05-07T04:38:51.617Z,54.35
2018-05-07T04:41:19.081Z,54.44
2018-05-07T04:43:47.614Z,54.18
2018-05-07T04:46:15.082Z,54.23
2018-05-07T04:48:42.584Z,54.13
2018-05-07T04:51:10.041Z,54.26
2018-05-07T04:53:37.510Z,54.02
2018-05-07T04:56:04.956Z,54.22
2018-05-07T04:58:32.416Z,54.45
2018-05-07T05:00:59.842Z,54.51
2018-05-07T05:03:27.278Z,54.35
2018-05-07T05:05:54.736Z,54.30
2018-05-07T05:08:22.191Z,54.41
2018-05-07T05:10:49.636Z,54.71
2018-05-07T05:13:17.063Z,54.29
2018-05-07T05:15:44.515Z,54.01
2018-05-07T05:18:11.962Z,53.99
2018-05-07T05:20:39.394Z,54.14
2018-05-07T05:23:06.880Z,53.73
2018-05-07T05:25:34.334Z,53.50
2018-05-07T05:28:01.796Z,53.40
2018-05-07T05:30:29.247Z,53.38
2018-05-07T05:32:56.714Z,53.57
2018-05-07T05:35:24.193Z,53.48
2018-05-07T05:37:51.736Z,53.61
2018-05-07T05:40:19.196Z,53.67
2018-05-07T05:42:46.748Z,53.74
2018-05-07T05:45:14.237Z,53.90
2018-05-07T05:47:41.695Z,53.74
2018-05-07T05:50:09.458Z,53.66
2018-05-07T05:52:36.854Z,53.62
2018-05-07T05:55:05.075Z,53.43
2018-05-07T05:57:32.695Z,53.32
2018-05-07T06:00:00.331Z,53.29
2018-05-07T06:02:27.790Z,53.18
2018-05-07T06:04:55.223Z,53.67
2018-05-07T06:07:22.681Z,53.48
2018-05-07T06:09:50.120Z,53.22
2018-05-07T06:12:17.627Z,53.52
2018-05-07T06:14:45.310Z,54.05
2018-05-07T06:17:12.762Z,53.97
2018-05-07T06:19:40.282Z,54.58
2018-05-07T06:22:09.422Z,54.95
2018-05-07T06:24:36.874Z,54.97
2018-05-07T06:27:04.328Z,54.79
2018-05-07T06:29:31.826Z,54.57
2018-05-07T06:31:59.269Z,54.26
2018-05-07T06:34:26.711Z,53.91
2018-05-07T06:36:54.252Z,53.66
2018-05-07T06:39:21.928Z,53.59
2018-05-07T06:41:49.361Z,53.86
2018-05-07T06:44:16.830Z,54.01
2018-05-07T06:46:44.309Z,53.72
2018-05-07T06:49:11.715Z,53.55
2018-05-07T06:51:39.159Z,53.02
2018-05-07T06:54:06.607Z,52.67
2018-05-07T06:56:34.044Z,52.10
2018-05-07T06:59:01.491Z,51.78
2018-05-07T07:01:28.959Z,51.89
2018-05-07T07:03:56.455Z,51.80
2018-05-07T07:06:29.015Z,51.83
2018-05-07T07:08:56.452Z,51.10
2018-05-07T07:11:23.935Z,51.27
2018-05-07T07:13:51.450Z,51.17
2018-05-07T07:16:19.002Z,51.02
2018-05-07T07:18:46.411Z,51.17
2018-05-07T07:21:13.943Z,51.67
2018-05-07T07:23:41.400Z,51.88
2018-05-07T07:26:08.862Z,51.67
2018-05-07T07:28:36.318Z,51.67
2018-05-07T07:31:03.809Z,51.15
2018-05-07T07:33:31.342Z,50.99
2018-05-07T07:35:58.848Z,51.08
2018-05-07T07:38:26.329Z,51.21
2018-05-07T07:40:53.821Z,51.00
2018-05-07T07:43:21.253Z,50.59
2018-05-07T07:45:48.724Z,50.19
2018-05-07T07:48:16.154Z,50.12
2018-05-07T07:50:43.632Z,50.17
2018-05-07T07:53:11.093Z,49.77
2018-05-07T07:55:38.550Z,49.46
2018-05-07T07:58:06.010Z,49.50
2018-05-07T08:00:33.481Z,48.77
2018-05-07T08:03:00.978Z,49.08
2018-05-07T08:05:28.491Z,48.34
2018-05-07T08:07:55.941Z,49.21
2018-05-07T08:10:23.402Z,48.86
2018-05-07T08:12:51.573Z,49.27
2018-05-07T08:15:19.032Z,49.82
2018-05-07T08:17:46.490Z,50.33
2018-05-07T08:20:13.954Z,48.78
2018-05-07T08:22:41.517Z,48.70
2018-05-07T08:25:08.956Z,48.19
2018-05-07T08:27:36.419Z,48.12
2018-05-07T08:30:03.888Z,47.65
2018-05-07T08:32:31.379Z,47.75
2018-05-07T08:34:58.845Z,47.65
2018-05-07T08:37:50.002Z,47.50
2018-05-07T08:40:17.463Z,47.37
2018-05-07T08:42:44.901Z,47.39
2018-05-07T08:45:12.409Z,47.30
2018-05-07T08:47:39.906Z,48.03
2018-05-07T08:50:07.411Z,47.18
2018-05-07T08:52:34.953Z,50.91
2018-05-07T08:55:02.485Z,48.42
2018-05-07T08:57:30.037Z,47.89
2018-05-07T08:59:57.793Z,46.74
2018-05-07T09:02:25.306Z,45.62
2018-05-07T09:04:53.440Z,44.62
2018-05-07T09:07:20.905Z,44.12
2018-05-07T09:09:48.379Z,44.31
2018-05-07T09:12:15.917Z,43.48
2018-05-07T09:14:43.424Z,43.32
2018-05-07T09:17:10.883Z,42.97
2018-05-07T09:19:39.272Z,42.57
2018-05-07T09:22:06.779Z,41.62
2018-05-07T09:24:34.344Z,41.91
2018-05-07T09:27:01.817Z,41.84
2018-05-07T09:29:29.279Z,42.91
2018-05-07T09:31:58.660Z,42.43
2018-05-07T09:34:26.204Z,43.53
2018-05-07T09:37:03.361Z,42.87
2018-05-07T09:39:30.761Z,41.90
2018-05-07T09:41:58.243Z,42.30
2018-05-07T09:44:26.004Z,42.29
2018-05-07T09:46:53.491Z,42.76
2018-05-07T09:49:20.951Z,40.94
2018-05-07T09:51:48.416Z,40.38
2018-05-07T09:54:15.859Z,40.24
2018-05-07T09:56:57.297Z,39.99
2018-05-07T09:59:24.650Z,39.95
2018-05-07T10:01:52.128Z,39.31
2018-05-07T10:04:19.582Z,39.29
2018-05-07T10:06:47.062Z,39.78
2018-05-07T10:09:14.521Z,39.07
2018-05-07T10:11:42.013Z,39.45
2018-05-07T10:14:09.440Z,39.15
2018-05-07T10:16:36.895Z,38.10
2018-05-07T10:19:04.346Z,37.89
2018-05-07T10:21:31.850Z,38.15
2018-05-07T10:23:59.340Z,38.01
2018-05-07T10:26:26.800Z,38.52
2018-05-07T10:28:54.306Z,39.07
2018-05-07T10:31:21.812Z,37.65
2018-05-07T10:33:49.254Z,37.41
2018-05-07T10:36:16.767Z,38.12
2018-05-07T10:38:44.215Z,37.95
2018-05-07T10:41:11.745Z,37.77
2018-05-07T10:43:39.522Z,37.38
2018-05-07T10:46:06.970Z,36.59
2018-05-07T10:48:34.429Z,36.43
2018-05-07T10:51:01.893Z,35.91
2018-05-07T10:53:29.347Z,36.89
2018-05-07T10:55:56.843Z,36.94
2018-05-07T10:58:24.277Z,36.46
2018-05-07T11:00:52.611Z,37.19
2018-05-07T11:03:20.097Z,37.57
2018-05-07T11:05:47.552Z,36.11
2018-05-07T11:08:15.042Z,35.77
2018-05-07T11:10:42.495Z,35.71
2018-05-07T11:13:09.967Z,34.56
2018-05-07T11:15:37.489Z,34.71
2018-05-07T11:18:04.999Z,34.27
2018-05-07T11:20:32.451Z,33.35
2018-05-07T11:22:59.920Z,33.44
2018-05-07T11:25:27.416Z,33.49
2018-05-07T11:27:54.821Z,32.64
2018-05-07T11:30:22.281Z,32.11
2018-05-07T11:32:49.755Z,31.35
2018-05-07T11:35:18.199Z,31.82
2018-05-07T11:37:45.660Z,31.46
2018-05-07T11:40:13.413Z,31.35
2018-05-07T11:42:40.933Z,31.23
2018-05-07T11:45:08.410Z,30.70
2018-05-07T11:47:40.856Z,30.63
2018-05-07T11:50:08.275Z,29.63
2018-05-07T11:52:35.751Z,29.45
2018-05-07T11:55:03.219Z,29.19
2018-05-07T11:57:35.661Z,28.94
2018-05-07T12:00:03.136Z,28.72
2018-05-07T12:02:30.673Z,28.68
2018-05-07T12:04:58.057Z,28.07
2018-05-07T12:07:25.719Z,27.34
2018-05-07T12:09:53.195Z,27.37
2018-05-07T12:12:20.647Z,27.57
2018-05-07T12:14:48.195Z,27.50
2018-05-07T12:17:15.761Z,27.85
2018-05-07T12:19:43.190Z,27.64
2018-05-07T12:22:10.663Z,27.91
2018-05-07T12:24:38.486Z,26.59
2018-05-07T12:27:05.953Z,26.46
2018-05-07T12:29:33.746Z,26.17
2018-05-07T12:32:01.219Z,25.78
2018-05-07T12:34:28.819Z,25.82
2018-05-07T12:36:56.329Z,25.63
2018-05-07T12:39:23.447Z,24.57
2018-05-07T12:41:50.501Z,24.68
2018-05-07T12:44:17.515Z,24.64
2018-05-07T12:46:44.738Z,24.56
2018-05-07T12:49:12.133Z,24.49
2018-05-07T12:51:39.159Z,23.85
2018-05-07T12:54:06.231Z,24.05
2018-05-07T12:56:33.239Z,23.36
2018-05-07T12:59:00.313Z,24.06
2018-05-07T13:01:27.534Z,24.16
2018-05-07T13:03:54.561Z,22.50
2018-05-07T13:06:21.599Z,23.24
2018-05-07T13:08:48.631Z,24.34
2018-05-07T13:11:15.716Z,24.50
2018-05-07T13:13:42.787Z,25.03
2018-05-07T13:16:09.881Z,25.02
2018-05-07T13:18:36.866Z,25.93
2018-05-07T13:21:03.979Z,25.12
2018-05-07T13:23:31.043Z,25.41
2018-05-07T13:25:58.299Z,26.05
2018-05-07T13:28:25.508Z,26.38
2018-05-07T13:30:52.527Z,26.30
2018-05-07T13:33:19.521Z,26.74
2018-05-07T13:35:46.653Z,26.66
2018-05-07T13:38:19.097Z,26.95
2018-05-07T13:40:46.126Z,28.16
2018-05-07T13:43:13.898Z,28.01
2018-05-07T13:45:40.937Z,27.65
2018-05-07T13:48:09.371Z,27.70
2018-05-07T13:50:36.483Z,27.30
2018-05-07T13:53:03.518Z,27.01
2018-05-07T13:55:30.617Z,27.05
2018-05-07T13:57:57.740Z,27.16
2018-05-07T14:00:24.758Z,26.44
2018-05-07T14:02:51.778Z,26.95
2018-05-07T14:05:18.782Z,27.06
2018-05-07T14:07:45.850Z,27.14
2018-05-07T14:10:12.902Z,26.71
2018-05-07T14:12:39.975Z,27.08
2018-05-07T14:15:06.990Z,26.68
2018-05-07T14:20:20.089Z,26.72
2018-05-07T14:22:47.432Z,27.54
2018-05-07T14:25:14.466Z,25.84
2018-05-07T14:30:36.857Z,26.77
2018-05-07T14:33:04.806Z,26.82
2018-05-07T14:35:31.969Z,26.87
2018-05-07T14:37:59.007Z,27.51
2018-05-07T14:40:26.041Z,27.41
2018-05-07T14:42:53.047Z,27.69
2018-05-07T14:45:20.041Z,27.68
2018-05-07T14:47:47.041Z,27.67
2018-05-07T14:50:14.105Z,25.97
2018-05-07T14:52:41.075Z,25.35
2018-05-07T14:55:08.101Z,25.56
2018-05-07T14:57:35.187Z,26.43
2018-05-07T15:00:02.301Z,27.16
2018-05-07T15:02:29.351Z,27.16
2018-05-07T15:04:56.340Z,27.50
2018-05-07T15:07:23.359Z,28.19
2018-05-07T15:09:50.438Z,28.32
2018-05-07T15:12:17.729Z,28.58
2018-05-07T15:14:44.698Z,28.64
2018-05-07T15:17:11.927Z,29.22
2018-05-07T15:19:38.940Z,29.62
2018-05-07T15:22:05.980Z,29.96
2018-05-07T15:24:38.818Z,30.46
2018-05-07T15:27:06.825Z,30.53
2018-05-07T15:29:34.552Z,30.16
2018-05-07T15:32:01.918Z,29.78
2018-05-07T15:34:29.370Z,30.09
2018-05-07T15:36:56.355Z,30.15
2018-05-07T15:39:23.380Z,30.54
2018-05-07T15:41:50.698Z,30.40
2018-05-07T15:44:17.793Z,30.82
2018-05-07T15:46:44.788Z,30.39
2018-05-07T15:49:11.815Z,30.31
2018-05-07T15:51:39.019Z,30.14
2018-05-07T15:54:06.064Z,30.21
2018-05-07T15:56:33.087Z,30.22
2018-05-07T15:59:00.089Z,29.95
2018-05-07T16:01:27.094Z,30.06
2018-05-07T16:03:54.073Z,30.00
2018-05-07T16:06:21.760Z,29.57
2018-05-07T16:08:48.802Z,30.14
2018-05-07T16:11:15.820Z,29.98
2018-05-07T16:13:42.892Z,30.29
2018-05-07T16:16:09.939Z,30.33
2018-05-07T16:21:22.507Z,30.73
2018-05-07T16:23:49.716Z,30.39
2018-05-07T16:26:16.748Z,30.11
2018-05-07T16:28:43.747Z,29.86
2018-05-07T16:31:11.099Z,29.90
2018-05-07T16:33:38.157Z,29.90
2018-05-07T16:36:05.202Z,29.84
2018-05-07T16:38:32.364Z,30.08
2018-05-07T16:40:59.372Z,30.00
2018-05-07T16:43:26.586Z,29.78
2018-05-07T16:45:53.602Z,29.48
2018-05-07T16:48:21.420Z,29.49
2018-05-07T16:50:48.427Z,29.60
2018-05-07T16:53:15.667Z,29.58
2018-05-07T16:55:42.923Z,29.81
2018-05-07T16:58:09.941Z,29.57
2018-05-07T17:00:37.844Z,29.63
2018-05-07T17:03:04.853Z,30.14
2018-05-07T17:05:31.908Z,29.57
2018-05-07T17:07:59.195Z,29.71
2018-05-07T17:10:26.188Z,29.54
2018-05-07T17:12:53.498Z,29.42
2018-05-07T17:15:20.866Z,29.39
2018-05-07T17:23:12.338Z,28.80
2018-05-07T17:25:40.529Z,29.25
2018-05-07T17:30:53.464Z,28.56
2018-05-07T17:33:20.744Z,29.44
2018-05-07T17:35:48.935Z,28.85
2018-05-07T17:41:11.360Z,29.50
2018-05-07T17:43:38.612Z,29.45
2018-05-07T17:46:25.294Z,29.35
2018-05-07T17:48:57.924Z,29.87
2018-05-07T17:59:41.799Z,31.31
2018-05-07T18:02:08.894Z,30.67
2018-05-07T18:04:36.799Z,30.52
2018-05-07T18:07:04.523Z,30.26
2018-05-07T18:12:07.714Z,30.42
2018-05-07T18:17:26.747Z,30.60
2018-05-07T18:19:53.865Z,30.71
2018-05-07T18:22:21.124Z,30.93
2018-05-07T18:24:53.858Z,31.36
2018-05-07T18:29:55.139Z,31.71
2018-05-07T18:32:22.240Z,31.60
2018-05-07T18:34:49.566Z,32.05
2018-05-07T18:37:17.568Z,32.14
2018-05-07T18:39:44.887Z,32.40
2018-05-07T18:42:12.014Z,32.51
2018-05-07T18:44:40.335Z,32.55
2018-05-07T18:47:17.425Z,32.79
2018-05-07T18:49:44.927Z,32.97
2018-05-07T18:52:12.270Z,33.04
2018-05-07T18:54:39.966Z,33.06
2018-05-07T18:57:07.831Z,33.18
2018-05-07T19:02:09.286Z,33.29
2018-05-07T19:04:36.430Z,33.57
2018-05-07T19:07:04.390Z,33.51
2018-05-07T19:09:31.364Z,33.45
2018-05-07T19:11:59.550Z,33.64
2018-05-07T19:14:26.644Z,33.75
2018-05-07T19:19:45.304Z,33.84
2018-05-07T19:27:17.025Z,34.24
2018-05-07T19:29:44.986Z,34.29
2018-05-07T19:45:45.488Z,35.12
2018-05-07T19:48:14.749Z,35.44
2018-05-07T19:53:13.837Z,36.29
2018-05-07T19:55:41.937Z,36.27
2018-05-07T19:58:29.889Z,36.31
2018-05-07T20:03:54.515Z,36.65
2018-05-07T20:12:12.152Z,37.21
2018-05-07T20:14:57.339Z,37.02
2018-05-07T20:22:43.331Z,37.61
2018-05-07T20:25:11.448Z,37.53
2018-05-07T20:27:41.145Z,37.80
2018-05-07T20:43:34.139Z,38.26
2018-05-07T20:46:02.877Z,38.24
2018-05-07T20:48:32.948Z,38.32
2018-05-07T20:51:00.667Z,38.50
2018-05-07T20:53:28.525Z,38.51
2018-05-07T20:55:56.285Z,38.81
2018-05-07T20:58:32.899Z,39.04
2018-05-07T21:00:59.911Z,39.04
2018-05-07T21:03:26.886Z,39.22
2018-05-07T21:05:53.996Z,39.33
2018-05-07T21:08:21.957Z,39.63
2018-05-07T21:10:49.739Z,39.59
2018-05-07T21:13:17.694Z,39.76
2018-05-07T21:15:48.553Z,39.75
2018-05-07T21:18:23.023Z,40.19
2018-05-07T21:23:24.011Z,40.33
2018-05-07T21:25:51.865Z,40.29
2018-05-07T21:33:49.685Z,39.89
2018-05-07T21:36:22.505Z,40.02
2018-05-07T21:38:56.532Z,40.17
2018-05-07T21:41:24.694Z,40.39
2018-05-07T21:43:53.277Z,40.45
2018-05-07T21:46:20.254Z,40.33
2018-05-07T21:49:01.685Z,40.38
2018-05-07T21:51:29.675Z,40.49
2018-05-07T21:53:59.254Z,40.54
2018-05-07T21:56:26.931Z,40.65
2018-05-07T21:58:57.207Z,41.14
2018-05-07T22:01:26.171Z,41.34
2018-05-07T22:03:53.861Z,41.25
2018-05-07T22:06:21.343Z,41.55
2018-05-07T22:08:58.426Z,41.36
2018-05-07T22:11:25.903Z,41.54
2018-05-07T22:13:53.583Z,41.60
2018-05-07T22:16:23.467Z,41.66
2018-05-07T22:25:57.851Z,42.18
2018-05-07T22:31:17.902Z,42.55
2018-05-07T22:33:48.904Z,42.76
2018-05-07T22:41:54.057Z,43.33
2018-05-07T22:44:22.122Z,43.28
2018-05-07T22:53:08.064Z,43.20
2018-05-07T23:12:50.244Z,44.07
2018-05-07T23:17:59.838Z,43.85
2018-05-07T23:20:28.561Z,43.95
2018-05-07T23:22:59.598Z,44.03
2018-05-07T23:25:27.386Z,44.09
2018-05-07T23:28:00.103Z,44.55
2018-05-07T23:30:27.665Z,44.74
2018-05-07T23:32:55.334Z,44.82
2018-05-07T23:35:23.783Z,44.82
2018-05-07T23:37:51.239Z,45.12
2018-05-07T23:40:18.737Z,45.29
2018-05-07T23:42:47.073Z,45.22
2018-05-07T23:45:14.513Z,45.28
2018-05-07T23:47:42.240Z,45.29
2018-05-07T23:50:09.715Z,45.27
2018-05-07T23:52:37.211Z,45.39
2018-05-07T23:55:04.681Z,45.58
2018-05-07T23:57:32.179Z,45.86
2018-05-07T23:59:59.673Z,46.04
